createdAt,value
2016-05-10T00:00:26.236Z,0
2016-05-10T00:01:39.285Z,0
2016-05-10T00:02:38.819Z,0
2016-05-10T00:03:40.057Z,0
2016-05-10T00:04:25.497Z,0
2016-05-10T00:05:39.296Z,0
2016-05-10T00:06:25.580Z,0
2016-05-10T00:07:25.193Z,0
2016-05-10T00:08:26.367Z,0
2016-05-10T00:09:39.557Z,0
2016-05-10T00:10:25.669Z,0
2016-05-10T00:11:25.235Z,0
2016-05-10T00:12:26.467Z,0
2016-05-10T00:13:26.308Z,0
2016-05-10T00:14:24.789Z,0
2016-05-10T00:15:26.474Z,0
2016-05-10T00:16:39.174Z,0
2016-05-10T00:17:26.341Z,0
2016-05-10T00:18:25.389Z,0
2016-05-10T00:19:25.172Z,0
2016-05-10T00:20:28.502Z,0
2016-05-10T00:21:24.957Z,0
2016-05-10T00:22:26.468Z,0
2016-05-10T00:23:25.163Z,0
2016-05-10T00:24:25.157Z,0
2016-05-10T00:25:24.851Z,0
2016-05-10T00:26:24.797Z,0
2016-05-10T00:27:25.725Z,0
2016-05-10T00:28:26.058Z,0
2016-05-10T00:29:26.125Z,0
2016-05-10T00:30:25.223Z,0
2016-05-10T00:31:39.134Z,0
2016-05-10T00:32:25.075Z,0
2016-05-10T00:33:26.063Z,0
2016-05-10T00:34:39.394Z,0
2016-05-10T00:35:25.773Z,0
2016-05-10T00:36:25.807Z,0
2016-05-10T00:37:25.060Z,0
2016-05-10T00:38:24.939Z,0
2016-05-10T00:39:25.066Z,0
2016-05-10T00:40:25.210Z,0
2016-05-10T00:41:25.213Z,0
2016-05-10T00:42:25.654Z,0
2016-05-10T00:43:25.157Z,0
2016-05-10T00:44:26.127Z,0
2016-05-10T00:45:25.475Z,0
2016-05-10T00:46:26.430Z,0
2016-05-10T00:47:25.871Z,0
2016-05-10T00:48:25.327Z,0
2016-05-10T00:49:24.923Z,0
2016-05-10T00:50:25.676Z,0
2016-05-10T00:51:25.099Z,0
2016-05-10T00:52:25.040Z,0
2016-05-10T00:53:25.074Z,0
2016-05-10T00:54:25.015Z,0
2016-05-10T00:55:25.440Z,0
2016-05-10T00:56:25.301Z,0
2016-05-10T00:57:25.257Z,0
2016-05-10T00:58:27.337Z,0
2016-05-10T00:59:24.871Z,0
2016-05-10T01:00:26.718Z,0
2016-05-10T01:01:26.283Z,0
2016-05-10T01:02:24.911Z,0
2016-05-10T01:03:25.304Z,0
2016-05-10T01:04:24.604Z,0
2016-05-10T01:05:25.091Z,0
2016-05-10T01:06:24.484Z,0
2016-05-10T01:07:24.581Z,0
2016-05-10T01:08:24.036Z,0
2016-05-10T01:09:24.102Z,0
2016-05-10T01:10:24.433Z,0
2016-05-10T01:11:25.107Z,0
2016-05-10T01:12:24.110Z,0
2016-05-10T01:13:25.581Z,0
2016-05-10T01:14:25.147Z,0
2016-05-10T01:15:25.368Z,0
2016-05-10T01:16:25.558Z,0
2016-05-10T01:17:23.889Z,0
2016-05-10T01:18:24.172Z,0
2016-05-10T01:19:24.972Z,0
2016-05-10T01:20:23.850Z,0
2016-05-10T01:21:23.946Z,0
2016-05-10T01:22:25.699Z,0
2016-05-10T01:23:23.749Z,0
2016-05-10T01:24:24.080Z,0
2016-05-10T01:25:23.910Z,0
2016-05-10T01:26:25.382Z,0
2016-05-10T01:27:24.009Z,0
2016-05-10T01:28:23.965Z,0
2016-05-10T01:29:25.265Z,0
2016-05-10T01:30:23.861Z,0
2016-05-10T01:31:23.332Z,0
2016-05-10T01:32:25.539Z,0
2016-05-10T01:33:23.854Z,0
2016-05-10T01:34:23.887Z,0
2016-05-10T01:35:25.156Z,0
2016-05-10T01:36:23.596Z,0
2016-05-10T01:37:24.036Z,0
2016-05-10T01:38:23.836Z,0
2016-05-10T01:39:24.964Z,0
2016-05-10T01:40:25.717Z,0
2016-05-10T01:41:24.078Z,0
2016-05-10T01:42:23.394Z,0
2016-05-10T01:43:23.380Z,0
2016-05-10T01:44:23.383Z,0
2016-05-10T01:45:23.808Z,0
2016-05-10T01:46:23.827Z,0
2016-05-10T01:47:23.501Z,0
2016-05-10T01:48:23.300Z,0
2016-05-10T01:49:23.771Z,0
2016-05-10T01:50:23.227Z,0
2016-05-10T01:51:23.558Z,0
2016-05-10T01:52:24.280Z,0
2016-05-10T01:53:23.377Z,0
2016-05-10T01:54:22.879Z,0
2016-05-10T01:55:23.788Z,0
2016-05-10T01:56:23.556Z,0
2016-05-10T01:57:23.263Z,0
2016-05-10T01:58:23.327Z,0
2016-05-10T01:59:23.940Z,0
2016-05-10T02:00:22.973Z,0
2016-05-10T02:01:23.413Z,0
2016-05-10T02:02:23.509Z,0
2016-05-10T02:03:23.215Z,0
2016-05-10T02:04:23.125Z,0
2016-05-10T02:05:23.003Z,0
2016-05-10T02:06:23.474Z,0
2016-05-10T02:07:23.976Z,0
2016-05-10T02:08:23.713Z,0
2016-05-10T02:09:23.513Z,0
2016-05-10T02:10:23.984Z,0
2016-05-10T02:11:23.144Z,0
2016-05-10T02:12:23.147Z,0
2016-05-10T02:13:23.305Z,0
2016-05-10T02:14:23.167Z,0
2016-05-10T02:15:23.904Z,0
2016-05-10T02:16:22.875Z,0
2016-05-10T02:17:23.175Z,0
2016-05-10T02:18:22.741Z,0
2016-05-10T02:19:22.915Z,0
2016-05-10T02:20:23.402Z,0
2016-05-10T02:22:23.454Z,0
2016-05-10T02:23:23.519Z,0
2016-05-10T02:25:22.900Z,0
2016-05-10T02:28:23.643Z,0
2016-05-10T02:31:23.822Z,0
2016-05-10T02:33:24.328Z,0
2016-05-10T02:35:23.990Z,0
2016-05-10T02:37:22.744Z,0
2016-05-10T02:39:24.062Z,0
2016-05-10T02:41:22.209Z,0
2016-05-10T02:42:24.367Z,0
2016-05-10T02:44:22.950Z,0
2016-05-10T02:45:23.204Z,0
2016-05-10T02:46:23.034Z,0
2016-05-10T02:50:22.732Z,0
2016-05-10T02:51:22.798Z,0
2016-05-10T02:52:23.410Z,0
2016-05-10T02:53:21.882Z,0
2016-05-10T02:54:21.666Z,0
2016-05-10T02:55:23.137Z,0
2016-05-10T02:56:21.733Z,0
2016-05-10T02:57:23.204Z,0
2016-05-10T02:58:21.785Z,0
2016-05-10T02:59:23.679Z,0
2016-05-10T03:00:21.712Z,0
2016-05-10T03:01:21.794Z,0
2016-05-10T03:02:21.482Z,0
2016-05-10T03:03:22.815Z,0
2016-05-10T03:04:21.612Z,0
2016-05-10T03:05:21.692Z,0
2016-05-10T03:06:23.245Z,0
2016-05-10T03:07:21.760Z,0
2016-05-10T03:08:22.437Z,0
2016-05-10T03:09:22.878Z,0
2016-05-10T03:10:21.612Z,0
2016-05-10T03:11:21.880Z,0
2016-05-10T03:12:21.430Z,0
2016-05-10T03:13:22.795Z,0
2016-05-10T03:14:21.654Z,0
2016-05-10T03:15:23.081Z,0
2016-05-10T03:16:21.597Z,0
2016-05-10T03:17:21.646Z,0
2016-05-10T03:18:21.447Z,0
2016-05-10T03:19:21.152Z,4
2016-05-10T03:20:21.388Z,4
2016-05-10T03:21:22.535Z,0
2016-05-10T03:22:22.990Z,0
2016-05-10T03:23:21.115Z,0
2016-05-10T03:24:21.633Z,4
2016-05-10T03:25:21.261Z,0
2016-05-10T03:26:21.249Z,0
2016-05-10T03:27:22.299Z,4
2016-05-10T03:28:21.863Z,4
2016-05-10T03:29:21.288Z,4
2016-05-10T03:30:21.119Z,4
2016-05-10T03:31:21.621Z,4
2016-05-10T03:32:20.890Z,4
2016-05-10T03:33:21.580Z,8
2016-05-10T03:34:21.035Z,8
2016-05-10T03:35:21.445Z,8
2016-05-10T03:36:20.963Z,8
2016-05-10T03:37:21.090Z,8
2016-05-10T03:38:21.032Z,12
2016-05-10T03:39:21.205Z,8
2016-05-10T03:40:21.020Z,12
2016-05-10T03:41:21.164Z,16
2016-05-10T03:42:21.432Z,16
2016-05-10T03:43:20.717Z,20
2016-05-10T03:44:21.000Z,20
2016-05-10T03:45:21.378Z,20
2016-05-10T03:46:20.709Z,24
2016-05-10T03:47:21.305Z,20
2016-05-10T03:48:20.745Z,24
2016-05-10T03:49:20.592Z,28
2016-05-10T03:50:20.751Z,28
2016-05-10T03:51:20.691Z,32
2016-05-10T03:52:20.708Z,40
2016-05-10T03:53:20.649Z,44
2016-05-10T03:54:20.683Z,48
2016-05-10T03:55:20.624Z,48
2016-05-10T03:56:20.705Z,48
2016-05-10T03:57:21.567Z,44
2016-05-10T03:58:20.616Z,48
2016-05-10T03:59:20.743Z,52
2016-05-10T04:00:20.512Z,52
2016-05-10T04:01:21.108Z,60
2016-05-10T04:02:20.971Z,60
2016-05-10T04:03:21.254Z,60
2016-05-10T04:04:20.523Z,68
2016-05-10T04:05:20.634Z,72
2016-05-10T04:06:20.231Z,76
2016-05-10T04:07:20.374Z,80
2016-05-10T04:08:20.752Z,88
2016-05-10T04:09:21.818Z,96
2016-05-10T04:10:20.320Z,100
2016-05-10T04:11:20.292Z,104
2016-05-10T04:12:20.279Z,108
2016-05-10T04:13:20.265Z,112
2016-05-10T04:14:21.347Z,120
2016-05-10T04:15:20.803Z,124
2016-05-10T04:16:20.398Z,128
2016-05-10T04:17:20.792Z,136
2016-05-10T04:18:19.998Z,140
2016-05-10T04:19:20.000Z,148
2016-05-10T04:20:20.691Z,156
2016-05-10T04:21:20.474Z,164
2016-05-10T04:22:20.243Z,172
2016-05-10T04:23:20.089Z,180
2016-05-10T04:24:20.108Z,184
2016-05-10T04:25:20.158Z,192
2016-05-10T04:26:20.036Z,200
2016-05-10T04:27:21.069Z,208
2016-05-10T04:28:19.837Z,220
2016-05-10T04:29:20.387Z,228
2016-05-10T04:30:19.827Z,236
2016-05-10T04:31:20.080Z,248
2016-05-10T04:32:19.614Z,260
2016-05-10T04:33:20.476Z,264
2016-05-10T04:34:19.900Z,280
2016-05-10T04:35:19.794Z,292
2016-05-10T04:36:20.171Z,300
2016-05-10T04:37:19.784Z,312
2016-05-10T04:38:19.787Z,316
2016-05-10T04:39:20.335Z,328
2016-05-10T04:40:19.792Z,340
2016-05-10T04:41:19.559Z,340
2016-05-10T04:42:19.531Z,348
2016-05-10T04:43:19.659Z,352
2016-05-10T04:44:19.459Z,356
2016-05-10T04:45:20.165Z,360
2016-05-10T04:46:19.589Z,364
2016-05-10T04:47:19.435Z,364
2016-05-10T04:48:33.441Z,376
2016-05-10T04:49:19.581Z,380
2016-05-10T04:50:19.381Z,376
2016-05-10T04:51:20.025Z,376
2016-05-10T04:52:19.495Z,376
2016-05-10T04:53:19.310Z,384
2016-05-10T04:54:19.282Z,384
2016-05-10T04:55:19.425Z,400
2016-05-10T04:56:19.366Z,412
2016-05-10T04:57:20.102Z,416
2016-05-10T04:58:19.466Z,416
2016-05-10T04:59:19.421Z,424
2016-05-10T05:00:19.283Z,432
2016-05-10T05:01:19.177Z,456
2016-05-10T05:02:19.272Z,472
2016-05-10T05:03:19.822Z,476
2016-05-10T05:04:19.012Z,476
2016-05-10T05:05:19.234Z,480
2016-05-10T05:06:19.565Z,492
2016-05-10T05:07:19.176Z,500
2016-05-10T05:08:19.148Z,520
2016-05-10T05:09:19.541Z,532
2016-05-10T05:10:19.168Z,520
2016-05-10T05:11:19.094Z,504
2016-05-10T05:12:19.143Z,500
2016-05-10T05:13:19.067Z,504
2016-05-10T05:14:18.884Z,508
2016-05-10T05:15:19.495Z,520
2016-05-10T05:16:18.981Z,536
2016-05-10T05:17:18.970Z,552
2016-05-10T05:18:18.597Z,572
2016-05-10T05:19:18.568Z,580
2016-05-10T05:20:18.914Z,588
2016-05-10T05:21:19.636Z,600
2016-05-10T05:22:18.967Z,608
2016-05-10T05:23:18.813Z,620
2016-05-10T05:24:19.706Z,628
2016-05-10T05:25:19.428Z,616
2016-05-10T05:26:18.994Z,616
2016-05-10T05:27:19.355Z,632
2016-05-10T05:28:19.499Z,648
2016-05-10T05:29:21.454Z,664
2016-05-10T05:30:18.847Z,676
2016-05-10T05:31:18.913Z,684
2016-05-10T05:32:18.524Z,700
2016-05-10T05:33:32.922Z,700
2016-05-10T05:34:18.672Z,696
2016-05-10T05:35:19.518Z,700
2016-05-10T05:36:18.770Z,680
2016-05-10T05:37:18.601Z,672
2016-05-10T05:38:18.526Z,684
2016-05-10T05:39:19.106Z,680
2016-05-10T05:40:18.546Z,676
2016-05-10T05:41:18.549Z,684
2016-05-10T05:42:18.834Z,680
2016-05-10T05:43:19.179Z,684
2016-05-10T05:44:18.839Z,704
2016-05-10T05:45:19.045Z,736
2016-05-10T05:46:18.594Z,732
2016-05-10T05:47:18.237Z,736
2016-05-10T05:48:18.178Z,748
2016-05-10T05:49:18.695Z,740
2016-05-10T05:50:18.418Z,744
2016-05-10T05:51:18.889Z,744
2016-05-10T05:52:18.360Z,748
2016-05-10T05:53:18.128Z,744
2016-05-10T05:54:18.522Z,748
2016-05-10T05:55:18.227Z,752
2016-05-10T05:56:18.449Z,756
2016-05-10T05:57:18.842Z,780
2016-05-10T05:58:17.954Z,784
2016-05-10T05:59:18.332Z,780
2016-05-10T06:00:18.397Z,796
2016-05-10T06:01:18.244Z,848
2016-05-10T06:02:18.230Z,868
2016-05-10T06:03:18.140Z,884
2016-05-10T06:04:18.424Z,888
2016-05-10T06:05:18.552Z,892
2016-05-10T06:06:18.319Z,888
2016-05-10T06:07:18.057Z,892
2016-05-10T06:08:17.950Z,904
2016-05-10T06:09:19.188Z,888
2016-05-10T06:10:18.798Z,892
2016-05-10T06:11:17.911Z,896
2016-05-10T06:12:17.898Z,912
2016-05-10T06:13:18.260Z,928
2016-05-10T06:14:17.716Z,936
2016-05-10T06:15:18.360Z,940
2016-05-10T06:16:17.753Z,940
2016-05-10T06:17:17.848Z,968
2016-05-10T06:18:18.555Z,976
2016-05-10T06:19:17.683Z,988
2016-05-10T06:20:18.232Z,1020
2016-05-10T06:21:18.642Z,1060
2016-05-10T06:22:17.879Z,1072
2016-05-10T06:23:18.178Z,1084
2016-05-10T06:24:18.150Z,1080
2016-05-10T06:25:18.199Z,1088
2016-05-10T06:26:17.670Z,1084
2016-05-10T06:27:17.704Z,1060
2016-05-10T06:28:18.489Z,1044
2016-05-10T06:29:18.225Z,1056
2016-05-10T06:30:17.900Z,1044
2016-05-10T06:31:17.543Z,1056
2016-05-10T06:32:17.531Z,1056
2016-05-10T06:33:18.110Z,1072
2016-05-10T06:34:17.801Z,1068
2016-05-10T06:35:17.444Z,1120
2016-05-10T06:36:17.791Z,1128
2016-05-10T06:37:17.496Z,1112
2016-05-10T06:38:17.438Z,1112
2016-05-10T06:39:18.002Z,1132
2016-05-10T06:40:18.145Z,1128
2016-05-10T06:41:17.398Z,1100
2016-05-10T06:42:17.370Z,1100
2016-05-10T06:43:17.294Z,1104
2016-05-10T06:44:17.563Z,1096
2016-05-10T06:45:17.940Z,1104
2016-05-10T06:46:18.334Z,1136
2016-05-10T06:47:17.884Z,1156
2016-05-10T06:48:17.245Z,1152
2016-05-10T06:49:17.248Z,1180
2016-05-10T06:50:17.235Z,1192
2016-05-10T06:51:17.519Z,1184
2016-05-10T06:52:17.506Z,1168
2016-05-10T06:53:17.071Z,1216
2016-05-10T06:54:16.778Z,1244
2016-05-10T06:55:17.061Z,1240
2016-05-10T06:56:17.438Z,1256
2016-05-10T06:57:17.816Z,1248
2016-05-10T06:58:16.975Z,1248
2016-05-10T06:59:17.337Z,1268
2016-05-10T07:00:17.027Z,1308
2016-05-10T07:01:17.264Z,1320
2016-05-10T07:02:16.891Z,1332
2016-05-10T07:03:17.302Z,1328
2016-05-10T07:04:17.413Z,1328
2016-05-10T07:05:16.838Z,1324
2016-05-10T07:06:17.230Z,1328
2016-05-10T07:07:17.515Z,1316
2016-05-10T07:08:16.799Z,1264
2016-05-10T07:09:16.988Z,1220
2016-05-10T07:10:16.977Z,1232
2016-05-10T07:11:18.916Z,1260
2016-05-10T07:12:17.621Z,1260
2016-05-10T07:13:16.640Z,1248
2016-05-10T07:14:16.534Z,1256
2016-05-10T07:15:17.349Z,1256
2016-05-10T07:16:16.883Z,1268
2016-05-10T07:17:16.698Z,1244
2016-05-10T07:18:16.873Z,1252
2016-05-10T07:19:17.500Z,1248
2016-05-10T07:20:16.613Z,1248
2016-05-10T07:21:16.943Z,1268
2016-05-10T07:22:16.852Z,1268
2016-05-10T07:23:16.714Z,1292
2016-05-10T07:24:16.701Z,1300
2016-05-10T07:25:16.486Z,1304
2016-05-10T07:26:16.442Z,1316
2016-05-10T07:27:16.834Z,1312
2016-05-10T07:28:16.994Z,1300
2016-05-10T07:29:17.308Z,1324
2016-05-10T07:30:18.186Z,1356
2016-05-10T07:31:16.391Z,1348
2016-05-10T07:32:16.175Z,1352
2016-05-10T07:33:17.710Z,1352
2016-05-10T07:34:16.666Z,1344
2016-05-10T07:35:16.325Z,1384
2016-05-10T07:36:16.593Z,1404
2016-05-10T07:37:16.564Z,1408
2016-05-10T07:38:16.598Z,1400
2016-05-10T07:39:16.491Z,1412
2016-05-10T07:40:16.463Z,1408
2016-05-10T07:41:16.434Z,1432
2016-05-10T07:42:16.406Z,1444
2016-05-10T07:43:16.174Z,1444
2016-05-10T07:44:17.130Z,1452
2016-05-10T07:45:16.852Z,1452
2016-05-10T07:46:16.604Z,1504
2016-05-10T07:47:16.107Z,1572
2016-05-10T07:48:16.343Z,1612
2016-05-10T07:49:16.050Z,1616
2016-05-10T07:50:16.240Z,1612
2016-05-10T07:51:16.102Z,1596
2016-05-10T07:52:16.214Z,1600
2016-05-10T07:53:15.951Z,1608
2016-05-10T07:54:15.798Z,1612
2016-05-10T07:55:16.082Z,1604
2016-05-10T07:56:16.287Z,1580
2016-05-10T07:57:15.712Z,1596
2016-05-10T07:58:16.261Z,1596
2016-05-10T07:59:17.405Z,1600
2016-05-10T08:00:16.080Z,1632
2016-05-10T08:01:15.753Z,1624
2016-05-10T08:02:15.897Z,1648
2016-05-10T08:03:16.119Z,1676
2016-05-10T08:04:16.090Z,1612
2016-05-10T08:05:15.733Z,1624
2016-05-10T08:06:16.267Z,1632
2016-05-10T08:07:16.302Z,1676
2016-05-10T08:08:15.976Z,1676
2016-05-10T08:09:15.916Z,1716
2016-05-10T08:10:16.044Z,1720
2016-05-10T08:11:15.921Z,1720
2016-05-10T08:12:15.580Z,1700
2016-05-10T08:13:15.849Z,1692
2016-05-10T08:14:16.617Z,1724
2016-05-10T08:15:15.885Z,1712
2016-05-10T08:16:15.888Z,1776
2016-05-10T08:17:15.546Z,1752
2016-05-10T08:18:15.471Z,1740
2016-05-10T08:19:15.443Z,1752
2016-05-10T08:20:15.977Z,1752
2016-05-10T08:21:16.042Z,1804
2016-05-10T08:22:15.795Z,1808
2016-05-10T08:23:15.532Z,1784
2016-05-10T08:24:15.379Z,1768
2016-05-10T08:25:15.568Z,1748
2016-05-10T08:26:15.742Z,1744
2016-05-10T08:27:16.183Z,1756
2016-05-10T08:28:15.592Z,1756
2016-05-10T08:29:15.517Z,1780
2016-05-10T08:30:18.269Z,1820
2016-05-10T08:31:15.569Z,1852
2016-05-10T08:32:42.761Z,1864
2016-05-10T08:33:15.605Z,1872
2016-05-10T08:34:15.328Z,1896
2016-05-10T08:35:15.002Z,1908
2016-05-10T08:36:15.363Z,1916
2016-05-10T08:37:15.100Z,1924
2016-05-10T08:38:15.369Z,1940
2016-05-10T08:39:15.121Z,1928
2016-05-10T08:40:15.390Z,1900
2016-05-10T08:41:15.049Z,1920
2016-05-10T08:42:15.863Z,1924
2016-05-10T08:43:15.101Z,1928
2016-05-10T08:44:17.151Z,1936
2016-05-10T08:45:14.841Z,1940
2016-05-10T08:46:15.671Z,1988
2016-05-10T08:47:15.159Z,2020
2016-05-10T08:48:14.959Z,2036
2016-05-10T08:49:14.915Z,2044
2016-05-10T08:50:15.354Z,2072
2016-05-10T08:51:15.013Z,2088
2016-05-10T08:52:14.985Z,2080
2016-05-10T08:53:14.941Z,2092
2016-05-10T08:54:15.396Z,2108
2016-05-10T08:55:15.024Z,2116
2016-05-10T08:56:15.059Z,2132
2016-05-10T08:57:15.139Z,2152
2016-05-10T08:58:15.001Z,2136
2016-05-10T08:59:15.378Z,2140
2016-05-10T09:00:14.756Z,2136
2016-05-10T09:01:15.259Z,2148
2016-05-10T09:02:15.746Z,2152
2016-05-10T09:03:14.655Z,2144
2016-05-10T09:04:14.641Z,2148
2016-05-10T09:05:14.582Z,2164
2016-05-10T09:06:16.554Z,2168
2016-05-10T09:07:14.635Z,2168
2016-05-10T09:08:14.841Z,2168
2016-05-10T09:09:14.250Z,2160
2016-05-10T09:10:14.627Z,2124
2016-05-10T09:11:24.021Z,2148
2016-05-10T09:12:15.289Z,2144
2016-05-10T09:13:15.885Z,2136
2016-05-10T09:14:14.888Z,2144
2016-05-10T09:15:15.110Z,2144
2016-05-10T09:16:14.893Z,2160
2016-05-10T09:17:14.458Z,2172
2016-05-10T09:18:14.461Z,2164
2016-05-10T09:19:14.907Z,2152
2016-05-10T09:20:14.780Z,2176
2016-05-10T09:21:15.714Z,2192
2016-05-10T09:22:15.462Z,2228
2016-05-10T09:23:15.193Z,2260
2016-05-10T09:24:16.041Z,2288
2016-05-10T09:25:14.903Z,2316
2016-05-10T09:26:14.890Z,2356
2016-05-10T09:27:14.876Z,2364
2016-05-10T09:28:15.003Z,2384
2016-05-10T09:29:15.481Z,2424
2016-05-10T09:30:14.349Z,2404
2016-05-10T09:31:15.184Z,2448
2016-05-10T09:32:14.740Z,2460
2016-05-10T09:33:14.450Z,2468
2016-05-10T09:34:15.362Z,2504
2016-05-10T09:35:14.960Z,2512
2016-05-10T09:36:14.527Z,2532
2016-05-10T09:37:14.453Z,2548
2016-05-10T09:38:14.443Z,2576
2016-05-10T09:39:14.680Z,2588
2016-05-10T09:40:14.528Z,2616
2016-05-10T09:41:14.422Z,2616
2016-05-10T09:42:14.738Z,2640
2016-05-10T09:43:15.008Z,2656
2016-05-10T09:44:15.775Z,2688
2016-05-10T09:45:14.764Z,2700
2016-05-10T09:46:14.391Z,2712
2016-05-10T09:47:14.567Z,2692
2016-05-10T09:48:14.366Z,2712
2016-05-10T09:49:14.431Z,2720
2016-05-10T09:50:15.184Z,2744
2016-05-10T09:51:14.530Z,2752
2016-05-10T09:52:14.298Z,2772
2016-05-10T09:53:14.879Z,2768
2016-05-10T09:54:14.476Z,2796
2016-05-10T09:55:14.259Z,2816
2016-05-10T09:56:14.059Z,2840
2016-05-10T09:57:14.609Z,2864
2016-05-10T09:58:15.189Z,2892
2016-05-10T09:59:14.756Z,2900
2016-05-10T10:00:15.102Z,2896
2016-05-10T10:01:15.073Z,2952
2016-05-10T10:02:14.325Z,2940
2016-05-10T10:03:14.031Z,2976
2016-05-10T10:04:15.081Z,3008
2016-05-10T10:05:14.286Z,3020
2016-05-10T10:06:14.086Z,3072
2016-05-10T10:07:13.714Z,3096
2016-05-10T10:08:14.216Z,3156
2016-05-10T10:09:13.861Z,3192
2016-05-10T10:10:13.863Z,3208
2016-05-10T10:11:14.444Z,3152
2016-05-10T10:12:14.010Z,3232
2016-05-10T10:13:14.152Z,3252
2016-05-10T10:14:14.077Z,3252
2016-05-10T10:15:13.673Z,3276
2016-05-10T10:16:13.785Z,3296
2016-05-10T10:17:13.616Z,3328
2016-05-10T10:18:14.696Z,3340
2016-05-10T10:19:13.856Z,3372
2016-05-10T10:20:14.108Z,3364
2016-05-10T10:21:13.752Z,3428
2016-05-10T10:22:13.629Z,3448
2016-05-10T10:23:14.054Z,3440
2016-05-10T10:24:13.697Z,3492
2016-05-10T10:25:13.420Z,3528
2016-05-10T10:26:13.547Z,3528
2016-05-10T10:27:13.690Z,3536
2016-05-10T10:28:13.521Z,3588
2016-05-10T10:29:14.617Z,3584
2016-05-10T10:30:13.573Z,3564
2016-05-10T10:31:13.716Z,3592
2016-05-10T10:32:13.750Z,3592
2016-05-10T10:33:14.034Z,3612
2016-05-10T10:34:13.583Z,3644
2016-05-10T10:35:13.664Z,3652
2016-05-10T10:36:13.480Z,3680
2016-05-10T10:37:13.263Z,3720
2016-05-10T10:38:13.829Z,3704
2016-05-10T10:39:13.253Z,3724
2016-05-10T10:40:13.646Z,3728
2016-05-10T10:41:14.041Z,3752
2016-05-10T10:42:13.871Z,3772
2016-05-10T10:43:13.280Z,3760
2016-05-10T10:44:13.611Z,3740
2016-05-10T10:45:13.863Z,3732
2016-05-10T10:46:13.507Z,3708
2016-05-10T10:47:13.760Z,3704
2016-05-10T10:48:13.152Z,3684
2016-05-10T10:49:13.858Z,3704
2016-05-10T10:50:13.487Z,3700
2016-05-10T10:51:13.177Z,3580
2016-05-10T10:52:13.226Z,3560
2016-05-10T10:53:13.385Z,3620
2016-05-10T10:54:13.137Z,3708
2016-05-10T10:55:13.328Z,3732
2016-05-10T10:56:13.408Z,3704
2016-05-10T10:57:13.098Z,3656
2016-05-10T10:58:13.008Z,3660
2016-05-10T10:59:13.464Z,3672
2016-05-10T11:00:13.654Z,3788
2016-05-10T11:01:13.016Z,3824
2016-05-10T11:02:14.190Z,3848
2016-05-10T11:03:12.990Z,3816
2016-05-10T11:04:13.087Z,3856
2016-05-10T11:05:13.120Z,3960
2016-05-10T11:06:12.936Z,4048
2016-05-10T11:07:13.422Z,4156
2016-05-10T11:08:13.394Z,4196
2016-05-10T11:09:13.740Z,4236
2016-05-10T11:10:13.305Z,4276
2016-05-10T11:11:13.386Z,4296
2016-05-10T11:12:13.577Z,4260
2016-05-10T11:13:13.329Z,4352
2016-05-10T11:14:13.160Z,4328
2016-05-10T11:15:13.022Z,4348
2016-05-10T11:16:13.009Z,4388
2016-05-10T11:17:13.074Z,4388
2016-05-10T11:18:12.796Z,4436
2016-05-10T11:19:12.815Z,4416
2016-05-10T11:20:13.363Z,4460
2016-05-10T11:21:12.679Z,4444
2016-05-10T11:22:13.244Z,4460
2016-05-10T11:23:12.529Z,4480
2016-05-10T11:24:12.656Z,4528
2016-05-10T11:25:13.206Z,4516
2016-05-10T11:26:12.662Z,4580
2016-05-10T11:27:12.820Z,4604
2016-05-10T11:28:13.589Z,4564
2016-05-10T11:29:13.232Z,4564
2016-05-10T11:30:12.906Z,4636
2016-05-10T11:31:13.003Z,4592
2016-05-10T11:32:13.114Z,4588
2016-05-10T11:33:12.430Z,4620
2016-05-10T11:34:12.479Z,4620
2016-05-10T11:35:12.841Z,4680
2016-05-10T11:36:12.531Z,4696
2016-05-10T11:37:12.081Z,4708
2016-05-10T11:38:12.911Z,4736
2016-05-10T11:39:12.243Z,4752
2016-05-10T11:40:12.605Z,4748
2016-05-10T11:41:12.827Z,4780
2016-05-10T11:42:12.361Z,4776
2016-05-10T11:43:12.394Z,4844
2016-05-10T11:44:13.568Z,4884
2016-05-10T11:45:12.681Z,4956
2016-05-10T11:46:12.528Z,5216
2016-05-10T11:47:12.686Z,5000
2016-05-10T11:48:13.471Z,5056
2016-05-10T11:49:12.254Z,5180
2016-05-10T11:50:12.507Z,5296
2016-05-10T11:51:12.354Z,5128
2016-05-10T11:52:12.324Z,5104
2016-05-10T11:53:12.577Z,5100
2016-05-10T11:54:12.065Z,5132
2016-05-10T11:55:12.223Z,5128
2016-05-10T11:56:12.382Z,5220
2016-05-10T11:57:12.745Z,5260
2016-05-10T11:58:12.137Z,5432
2016-05-10T11:59:12.406Z,5412
2016-05-10T12:00:12.643Z,5648
2016-05-10T12:01:12.239Z,5816
2016-05-10T12:02:12.148Z,9192
2016-05-10T12:03:12.588Z,12724
2016-05-10T12:04:12.122Z,12264
2016-05-10T12:05:12.453Z,12036
2016-05-10T12:06:13.128Z,10036
2016-05-10T12:07:12.365Z,8336
2016-05-10T12:08:12.742Z,6264
2016-05-10T12:09:12.495Z,6272
2016-05-10T12:10:11.920Z,6172
2016-05-10T12:11:12.173Z,6524
2016-05-10T12:12:12.566Z,7092
2016-05-10T12:13:11.913Z,6880
2016-05-10T12:14:12.884Z,6124
2016-05-10T12:15:12.215Z,5836
2016-05-10T12:16:12.936Z,5740
2016-05-10T12:17:12.361Z,5664
2016-05-10T12:18:11.816Z,5620
2016-05-10T12:19:12.257Z,5608
2016-05-10T12:20:12.135Z,5560
2016-05-10T12:21:26.356Z,5536
2016-05-10T12:22:11.937Z,5564
2016-05-10T12:23:11.924Z,5552
2016-05-10T12:24:11.754Z,5624
2016-05-10T12:25:11.821Z,6008
2016-05-10T12:26:12.041Z,6992
2016-05-10T12:27:11.575Z,6996
2016-05-10T12:28:11.657Z,6044
2016-05-10T12:29:11.674Z,5812
2016-05-10T12:30:11.584Z,7296
2016-05-10T12:31:11.743Z,6852
2016-05-10T12:32:11.806Z,6584
2016-05-10T12:33:11.857Z,6068
2016-05-10T12:34:11.610Z,6152
2016-05-10T12:35:11.690Z,6516
2016-05-10T12:36:11.365Z,5052
2016-05-10T12:37:11.743Z,4776
2016-05-10T12:38:11.964Z,4604
2016-05-10T12:39:11.530Z,4544
2016-05-10T12:40:11.344Z,4636
2016-05-10T12:41:11.675Z,4852
2016-05-10T12:42:11.631Z,5048
2016-05-10T12:43:11.306Z,5124
2016-05-10T12:44:11.261Z,5120
2016-05-10T12:45:11.436Z,5084
2016-05-10T12:46:11.782Z,5128
2016-05-10T12:47:12.255Z,5108
2016-05-10T12:48:11.366Z,5044
2016-05-10T12:49:11.400Z,4804
2016-05-10T12:50:11.605Z,4536
2016-05-10T12:51:11.280Z,4316
2016-05-10T12:52:11.330Z,4264
2016-05-10T12:53:11.552Z,4324
2016-05-10T12:54:11.288Z,4412
2016-05-10T12:55:10.822Z,4624
2016-05-10T12:56:11.607Z,4676
2016-05-10T12:57:11.218Z,4748
2016-05-10T12:58:11.331Z,4744
2016-05-10T12:59:11.223Z,4876
2016-05-10T13:00:10.851Z,5008
2016-05-10T13:01:11.432Z,5076
2016-05-10T13:02:11.154Z,5092
2016-05-10T13:03:11.016Z,5100
2016-05-10T13:04:11.128Z,5196
2016-05-10T13:05:11.365Z,5128
2016-05-10T13:06:11.196Z,5300
2016-05-10T13:07:11.526Z,5348
2016-05-10T13:08:10.764Z,5448
2016-05-10T13:09:11.016Z,5508
2016-05-10T13:10:11.113Z,5520
2016-05-10T13:11:10.912Z,5408
2016-05-10T13:12:11.024Z,5712
2016-05-10T13:13:10.855Z,5828
2016-05-10T13:14:11.170Z,5948
2016-05-10T13:15:10.719Z,6256
2016-05-10T13:16:10.972Z,6304
2016-05-10T13:17:11.194Z,6032
2016-05-10T13:18:10.885Z,5584
2016-05-10T13:19:10.871Z,5564
2016-05-10T13:20:10.671Z,5708
2016-05-10T13:21:10.799Z,5828
2016-05-10T13:22:10.802Z,6028
2016-05-10T13:23:10.663Z,5404
2016-05-10T13:24:11.712Z,5484
2016-05-10T13:25:10.466Z,5512
2016-05-10T13:26:10.656Z,5356
2016-05-10T13:27:10.830Z,4820
2016-05-10T13:28:10.598Z,4856
2016-05-10T13:29:10.851Z,5184
2016-05-10T13:30:10.307Z,5196
2016-05-10T13:31:10.841Z,4404
2016-05-10T13:32:10.906Z,3484
2016-05-10T13:33:10.503Z,4528
2016-05-10T13:34:10.631Z,5464
2016-05-10T13:35:10.898Z,5228
2016-05-10T13:36:10.308Z,4740
2016-05-10T13:37:10.732Z,4460
2016-05-10T13:38:10.501Z,3820
2016-05-10T13:39:10.394Z,3760
2016-05-10T13:40:10.552Z,4108
2016-05-10T13:41:10.836Z,4056
2016-05-10T13:42:10.605Z,3276
2016-05-10T13:43:52.000Z,3236
2016-05-10T13:44:10.547Z,3332
2016-05-10T13:45:10.270Z,3552
2016-05-10T13:46:10.460Z,3492
2016-05-10T13:47:10.806Z,3444
2016-05-10T13:48:10.324Z,3428
2016-05-10T13:49:10.421Z,3372
2016-05-10T13:50:10.408Z,3324
2016-05-10T13:51:10.099Z,3272
2016-05-10T13:52:10.491Z,3100
2016-05-10T13:53:10.619Z,3048
2016-05-10T13:54:10.356Z,3000
2016-05-10T13:55:10.593Z,2956
2016-05-10T13:56:10.299Z,2908
2016-05-10T13:57:10.302Z,2780
2016-05-10T13:58:10.179Z,2672
2016-05-10T13:59:10.620Z,2548
2016-05-10T14:00:10.778Z,2424